Time;durP1;ratioP1;P1;durP2;ratioP2;P2;SDS_P1;SDS_P2;PMS_P1;PMS_P2;Temp;Humidity;BMP_temperature;BMP_pressure;BME280_temperature;BME280_humidity;BME280_pressure;Samples;Min_cycle;Max_cycle;Signal;HPM_P1;HPM_P2
2023/08/14 00:01:50;;;;;;;0.50;0.30;;;;;;;20.55;100.00;100228.47;5007610;28;20476;-48
2023/08/14 00:04:17;;;;;;;0.50;0.30;;;;;;;20.64;100.00;100231.38;4988362;28;20466;-49
2023/08/14 00:06:43;;;;;;;0.50;0.20;;;;;;;20.74;100.00;100234.28;5013963;28;20427;-51
2023/08/14 00:09:10;;;;;;;0.50;0.20;;;;;;;20.61;100.00;100225.34;5013923;28;20455;-50
2023/08/14 00:11:37;;;;;;;0.50;0.20;;;;;;;20.41;100.00;100230.28;5013500;28;20439;-49
2023/08/14 00:14:04;;;;;;;0.50;0.20;;;;;;;20.57;100.00;100235.50;5013601;28;20452;-49
2023/08/14 00:16:30;;;;;;;0.50;0.20;;;;;;;20.56;100.00;100231.06;5013477;28;21036;-49
2023/08/14 00:18:57;;;;;;;0.50;0.20;;;;;;;20.47;100.00;100244.34;5013552;28;20538;-48
2023/08/14 00:21:23;;;;;;;0.50;0.20;;;;;;;20.63;100.00;100236.88;5013584;28;20449;-49
2023/08/14 00:23:50;;;;;;;0.50;0.20;;;;;;;20.56;100.00;100224.78;5013485;28;20452;-49
2023/08/14 00:26:17;;;;;;;0.50;0.20;;;;;;;20.49;100.00;100228.91;5001226;28;20998;-49
2023/08/14 00:28:44;;;;;;;0.50;0.20;;;;;;;20.59;100.00;100235.38;5013433;28;20528;-49
2023/08/14 00:31:10;;;;;;;0.50;0.30;;;;;;;20.66;100.00;100236.66;5013073;28;20478;-49
2023/08/14 00:33:37;;;;;;;0.50;0.20;;;;;;;20.67;100.00;100235.69;5013588;28;20448;-49
2023/08/14 00:36:05;;;;;;;0.50;0.20;;;;;;;20.65;100.00;100229.53;5009983;28;20635;-49
2023/08/14 00:38:32;;;;;;;0.50;0.20;;;;;;;20.70;100.00;100235.50;5001377;28;20448;-49
2023/08/14 00:40:59;;;;;;;0.47;0.20;;;;;;;20.66;100.00;100231.25;5012926;28;20776;-49
2023/08/14 00:43:25;;;;;;;0.50;0.20;;;;;;;20.63;100.00;100224.25;5003614;28;20903;-48
2023/08/14 00:45:55;;;;;;;0.50;0.20;;;;;;;20.53;100.00;100203.41;5012938;28;20892;-49
2023/08/14 00:48:24;;;;;;;0.50;0.30;;;;;;;20.56;100.00;100206.78;5013132;28;20503;-49
2023/08/14 00:50:52;;;;;;;0.50;0.20;;;;;;;20.58;100.00;100210.22;5012860;28;20526;-48
2023/08/14 00:53:19;;;;;;;0.50;0.20;;;;;;;20.60;100.00;100205.56;5013110;28;20453;-48
2023/08/14 00:55:46;;;;;;;0.50;0.20;;;;;;;20.52;100.00;100201.66;5007905;28;20454;-48
2023/08/14 00:58:13;;;;;;;0.50;0.20;;;;;;;20.40;100.00;100195.28;5013150;28;20460;-49
2023/08/14 01:00:41;;;;;;;0.50;0.20;;;;;;;20.39;100.00;100191.69;5012601;28;20489;-48
2023/08/14 01:03:07;;;;;;;0.50;0.30;;;;;;;20.41;100.00;100192.50;5012919;28;20458;-48
2023/08/14 01:05:34;;;;;;;0.50;0.20;;;;;;;20.30;100.00;100197.78;5012875;28;20495;-49
2023/08/14 01:08:01;;;;;;;0.50;0.20;;;;;;;20.35;100.00;100194.75;5012646;28;20968;-49
2023/08/14 01:10:39;;;;;;;0.50;0.20;;;;;;;20.29;100.00;100187.94;5012930;28;20539;-49
2023/08/14 01:13:18;;;;;;;0.50;0.20;;;;;;;20.28;100.00;100191.59;5012529;28;21042;-49
2023/08/14 01:15:49;;;;;;;0.50;0.20;;;;;;;20.44;100.00;100195.97;5012923;28;20506;-49
2023/08/14 01:18:17;;;;;;;0.50;0.20;;;;;;;20.55;100.00;100187.94;5012483;28;20543;-48
2023/08/14 01:20:58;;;;;;;0.50;0.30;;;;;;;20.43;100.00;100189.72;5012643;28;20574;-49
2023/08/14 01:23:35;;;;;;;0.50;0.20;;;;;;;20.45;100.00;100197.69;5011535;28;20419;-48
2023/08/14 01:26:02;;;;;;;0.50;0.20;;;;;;;20.40;100.00;100198.84;5002344;28;20461;-48
2023/08/14 01:28:29;;;;;;;0.43;0.20;;;;;;;20.44;100.00;100194.13;5011042;28;20983;-49
2023/08/14 01:30:56;;;;;;;0.50;0.20;;;;;;;20.45;100.00;100205.78;5012377;28;20571;-50
2023/08/14 01:33:22;;;;;;;0.50;0.20;;;;;;;20.38;100.00;100208.00;5013178;28;20964;-48
2023/08/14 01:36:13;;;;;;;0.50;0.20;;;;;;;20.32;100.00;100195.81;5010354;28;20452;-49
2023/08/14 01:38:56;;;;;;;0.50;0.20;;;;;;;20.28;100.00;100206.94;5001889;28;20444;-48
2023/08/14 01:41:28;;;;;;;0.50;0.20;;;;;;;20.24;100.00;100198.19;5011508;28;20468;-49
2023/08/14 01:43:58;;;;;;;0.50;0.20;;;;;;;20.23;100.00;100196.47;5005199;28;20471;-49
2023/08/14 01:46:26;;;;;;;0.47;0.20;;;;;;;20.27;100.00;100187.16;5012518;28;20583;-48
2023/08/14 01:48:55;;;;;;;0.50;0.20;;;;;;;20.06;100.00;100184.16;5012541;28;20482;-50
2023/08/14 01:51:23;;;;;;;0.50;0.20;;;;;;;20.12;100.00;100172.91;5012229;28;20473;-49
2023/08/14 01:53:49;;;;;;;0.47;0.20;;;;;;;20.26;100.00;100171.09;5012095;28;20449;-49
2023/08/14 01:56:16;;;;;;;0.50;0.20;;;;;;;20.22;100.00;100178.53;5006849;28;20449;-48
2023/08/14 01:58:42;;;;;;;0.50;0.20;;;;;;;20.19;100.00;100173.38;5012071;28;20479;-49
2023/08/14 02:01:09;;;;;;;0.50;0.20;;;;;;;20.02;100.00;100171.84;5012256;28;20537;-48
2023/08/14 02:03:35;;;;;;;0.50;0.20;;;;;;;20.17;100.00;100178.00;5012131;28;20845;-49
2023/08/14 02:06:02;;;;;;;0.50;0.20;;;;;;;20.19;100.00;100175.19;5012040;28;20899;-50
2023/08/14 02:08:28;;;;;;;0.50;0.20;;;;;;;20.32;100.00;100173.38;5011995;28;20448;-49
2023/08/14 02:10:55;;;;;;;0.50;0.20;;;;;;;20.40;100.00;100177.22;5012287;28;20496;-49
2023/08/14 02:13:21;;;;;;;0.50;0.30;;;;;;;20.28;100.00;100169.13;5015929;28;20459;-49
2023/08/14 02:15:48;;;;;;;0.50;0.20;;;;;;;20.33;100.00;100169.69;5016010;28;20953;-49
2023/08/14 02:18:15;;;;;;;0.50;0.20;;;;;;;20.19;100.00;100162.56;5002479;28;20831;-49
2023/08/14 02:20:52;;;;;;;0.50;0.20;;;;;;;20.10;100.00;100164.06;5015714;28;20624;-51
2023/08/14 02:23:23;;;;;;;0.40;0.20;;;;;;;20.10;100.00;100158.66;5015787;28;20531;-48
2023/08/14 02:25:52;;;;;;;0.50;0.20;;;;;;;20.12;100.00;100156.72;5007079;28;20516;-49
2023/08/14 02:28:19;;;;;;;0.50;0.20;;;;;;;20.08;100.00;100155.22;5012505;28;20925;-48
2023/08/14 02:30:45;;;;;;;0.50;0.30;;;;;;;20.21;100.00;100154.34;5015665;28;20445;-48
2023/08/14 02:33:12;;;;;;;0.50;0.20;;;;;;;20.20;100.00;100158.03;5015354;28;20937;-49
2023/08/14 02:35:38;;;;;;;0.40;0.20;;;;;;;20.31;100.00;100140.09;5013507;28;20511;-49
2023/08/14 02:38:06;;;;;;;0.50;0.20;;;;;;;20.23;100.00;100144.31;5002565;28;20453;-48
2023/08/14 02:40:33;;;;;;;0.50;0.20;;;;;;;20.31;100.00;100144.66;5015526;28;20492;-49
2023/08/14 02:43:02;;;;;;;0.50;0.20;;;;;;;20.29;100.00;100141.19;5005224;28;20477;-48
2023/08/14 02:45:29;;;;;;;0.50;0.20;;;;;;;20.28;100.00;100142.13;5015408;28;20459;-49
2023/08/14 02:47:56;;;;;;;0.40;0.20;;;;;;;20.22;100.00;100127.25;5015220;28;20483;-49
2023/08/14 02:50:23;;;;;;;0.50;0.30;;;;;;;20.27;100.00;100122.38;5015527;28;20480;-50
2023/08/14 02:52:49;;;;;;;0.50;0.20;;;;;;;20.32;100.00;100119.38;5015278;28;20450;-48
2023/08/14 02:55:16;;;;;;;0.43;0.20;;;;;;;20.36;100.00;100110.94;5011133;28;20453;-49
2023/08/14 02:57:43;;;;;;;0.40;0.20;;;;;;;20.36;100.00;100105.53;5014380;28;20503;-48
2023/08/14 03:00:10;;;;;;;0.40;0.20;;;;;;;20.41;100.00;100113.28;5015054;28;20510;-49
2023/08/14 03:02:36;;;;;;;0.40;0.20;;;;;;;20.34;100.00;100115.56;5015116;28;20476;-48
2023/08/14 03:05:03;;;;;;;0.50;0.20;;;;;;;20.39;100.00;100126.03;5015626;28;20459;-48
2023/08/14 03:07:29;;;;;;;0.87;0.77;;;;;;;20.37;100.00;100120.75;5014941;28;20448;-49
2023/08/14 03:09:56;;;;;;;0.40;0.20;;;;;;;20.39;100.00;100121.50;5015110;28;20448;-49
2023/08/14 03:12:22;;;;;;;0.40;0.20;;;;;;;20.36;100.00;100128.97;5014706;28;20466;-49
2023/08/14 03:14:49;;;;;;;0.50;0.20;;;;;;;20.30;100.00;100135.69;5014907;28;20531;-49
2023/08/14 03:17:15;;;;;;;0.50;0.20;;;;;;;20.27;100.00;100135.00;5014844;28;20535;-49
2023/08/14 03:19:42;;;;;;;0.50;0.20;;;;;;;20.26;100.00;100126.06;5014914;28;20520;-49
2023/08/14 03:22:08;;;;;;;0.50;0.20;;;;;;;20.39;100.00;100123.34;5014600;28;20827;-49
2023/08/14 03:24:35;;;;;;;0.50;0.20;;;;;;;20.39;100.00;100128.75;5015003;28;20459;-49
2023/08/14 03:27:01;;;;;;;0.50;0.20;;;;;;;20.23;100.00;100120.88;5002443;28;20449;-49
2023/08/14 03:29:28;;;;;;;0.40;0.20;;;;;;;20.32;100.00;100119.38;5014409;28;20449;-49
2023/08/14 03:31:54;;;;;;;0.50;0.30;;;;;;;20.79;100.00;100110.53;4988189;28;20447;-48
2023/08/14 03:34:21;;;;;;;0.50;0.20;;;;;;;20.69;100.00;100112.16;5014338;28;20458;-49
2023/08/14 03:36:47;;;;;;;0.40;0.20;;;;;;;20.63;100.00;100099.13;5005767;28;20432;-49
2023/08/14 03:39:14;;;;;;;0.50;0.20;;;;;;;20.48;100.00;100097.56;5008050;28;20455;-49
2023/08/14 03:41:40;;;;;;;0.40;0.20;;;;;;;20.45;100.00;100089.69;5010875;28;20452;-49
2023/08/14 03:44:07;;;;;;;0.40;0.20;;;;;;;20.45;100.00;100093.25;5007871;28;20860;-49
2023/08/14 03:46:33;;;;;;;0.40;0.20;;;;;;;20.37;100.00;100095.59;5014318;28;21033;-48
2023/08/14 03:49:00;;;;;;;0.40;0.20;;;;;;;20.41;100.00;100102.47;5014235;28;20872;-49
2023/08/14 03:51:26;;;;;;;0.50;0.20;;;;;;;20.43;100.00;100097.03;5014311;28;20816;-49
2023/08/14 03:53:53;;;;;;;0.40;0.30;;;;;;;20.31;100.00;100102.31;5014070;28;20542;-49
2023/08/14 03:56:19;;;;;;;6.93;4.70;;;;;;;20.29;100.00;100098.84;5008522;28;20452;-49
2023/08/14 03:58:46;;;;;;;0.40;0.20;;;;;;;20.31;100.00;100109.53;5013888;28;20433;-49
2023/08/14 04:01:12;;;;;;;0.50;0.20;;;;;;;20.29;100.00;100104.25;5014068;28;20554;-49
2023/08/14 04:03:39;;;;;;;0.50;0.20;;;;;;;20.22;100.00;100100.25;5014064;28;20445;-49
2023/08/14 04:06:06;;;;;;;0.50;0.20;;;;;;;20.13;100.00;100103.59;5014045;28;20423;-49
2023/08/14 04:08:32;;;;;;;0.40;0.20;;;;;;;20.05;100.00;100112.25;5013800;28;20455;-49
2023/08/14 04:10:59;;;;;;;0.40;0.20;;;;;;;19.93;100.00;100106.84;5013749;28;20431;-48
2023/08/14 04:13:26;;;;;;;0.40;0.20;;;;;;;19.91;100.00;100122.28;5013336;28;20471;-49
2023/08/14 04:15:59;;;;;;;0.40;0.20;;;;;;;19.91;100.00;100114.22;5013915;28;20481;-49
2023/08/14 04:18:29;;;;;;;0.50;0.20;;;;;;;19.80;100.00;100107.72;5013668;28;20425;-49
2023/08/14 04:20:56;;;;;;;0.50;0.20;;;;;;;19.78;100.00;100108.81;5013663;28;20488;-48
2023/08/14 04:23:25;;;;;;;0.47;0.20;;;;;;;19.90;100.00;100113.34;5013422;28;20428;-49
2023/08/14 04:25:52;;;;;;;0.50;0.20;;;;;;;19.93;100.00;100114.97;5004216;28;20492;-49
2023/08/14 04:28:18;;;;;;;0.50;0.20;;;;;;;19.84;100.00;100105.66;5010472;28;20452;-51
2023/08/14 04:30:45;;;;;;;0.50;0.20;;;;;;;19.79;100.00;100115.91;5013628;28;20457;-49
2023/08/14 04:33:11;;;;;;;0.50;0.20;;;;;;;19.79;100.00;100114.09;5013242;28;20445;-48
2023/08/14 04:35:38;;;;;;;0.50;0.20;;;;;;;19.92;100.00;100115.94;5010450;28;20804;-48
2023/08/14 04:38:04;;;;;;;0.40;0.20;;;;;;;19.91;100.00;100119.59;4999973;28;20453;-50
2023/08/14 04:40:31;;;;;;;0.50;0.20;;;;;;;19.90;100.00;100113.34;5013115;28;20531;-48
2023/08/14 04:42:57;;;;;;;0.40;0.20;;;;;;;19.89;100.00;100119.72;5003014;28;20534;-49
2023/08/14 04:45:24;;;;;;;0.40;0.20;;;;;;;19.89;100.00;100122.41;5013480;28;20480;-49
2023/08/14 04:47:51;;;;;;;0.50;0.20;;;;;;;19.93;100.00;100120.34;5013337;28;20453;-49
2023/08/14 04:50:21;;;;;;;0.40;0.20;;;;;;;19.99;100.00;100115.38;5013275;28;20527;-49
2023/08/14 04:52:47;;;;;;;0.40;0.20;;;;;;;20.11;100.00;100124.44;5012700;28;20443;-49
2023/08/14 04:55:14;;;;;;;0.47;0.20;;;;;;;19.91;100.00;100127.69;5008890;28;21029;-49
2023/08/14 04:57:40;;;;;;;0.40;0.20;;;;;;;19.96;100.00;100134.47;5011660;28;20453;-49
2023/08/14 05:00:07;;;;;;;0.50;0.20;;;;;;;19.88;100.00;100125.22;5013032;28;20488;-49
2023/08/14 05:02:34;;;;;;;0.50;0.20;;;;;;;20.04;100.00;100131.25;5012784;28;20496;-49
2023/08/14 05:05:00;;;;;;;0.40;0.20;;;;;;;20.12;100.00;100128.88;5013064;28;20452;-49
2023/08/14 05:07:27;;;;;;;0.40;0.20;;;;;;;20.19;100.00;100124.78;5012725;28;20426;-49
2023/08/14 05:09:54;;;;;;;0.50;0.20;;;;;;;20.23;100.00;100120.00;5012996;28;20833;-49
2023/08/14 05:12:20;;;;;;;0.40;0.20;;;;;;;20.38;100.00;100130.56;5012981;28;20562;-49
2023/08/14 05:14:47;;;;;;;0.40;0.20;;;;;;;20.43;100.00;100138.41;5012852;28;20456;-51
2023/08/14 05:17:13;;;;;;;0.40;0.20;;;;;;;20.41;100.00;100124.97;5012598;28;20947;-49
2023/08/14 05:19:40;;;;;;;0.40;0.20;;;;;;;20.47;100.00;100125.53;5012637;28;20527;-49
2023/08/14 05:22:06;;;;;;;1.70;1.60;;;;;;;20.51;100.00;100124.31;4986239;28;20476;-49
2023/08/14 05:24:33;;;;;;;0.43;0.20;;;;;;;20.48;100.00;100105.66;5012813;28;20428;-49
2023/08/14 05:26:59;;;;;;;0.40;0.20;;;;;;;20.67;100.00;100114.13;4998064;28;20460;-48
2023/08/14 05:29:26;;;;;;;0.50;0.20;;;;;;;20.58;100.00;100117.53;5012501;28;20453;-49
2023/08/14 05:31:52;;;;;;;0.40;0.20;;;;;;;20.80;100.00;100130.31;4986085;28;20505;-49
2023/08/14 05:34:18;;;;;;;0.40;0.20;;;;;;;20.83;100.00;100135.47;5012432;28;20522;-49
2023/08/14 05:36:45;;;;;;;0.40;0.20;;;;;;;20.87;100.00;100131.59;5001399;28;20453;-50
2023/08/14 05:39:11;;;;;;;0.40;0.20;;;;;;;20.84;100.00;100132.69;5006310;28;20475;-49
2023/08/14 05:41:39;;;;;;;0.40;0.20;;;;;;;20.87;100.00;100112.69;4983402;28;20467;-49
2023/08/14 05:44:05;;;;;;;0.40;0.20;;;;;;;20.90;100.00;100116.00;5005696;28;20453;-49
2023/08/14 05:46:32;;;;;;;0.40;0.20;;;;;;;20.98;100.00;100123.56;5013574;28;20424;-49
2023/08/14 05:48:59;;;;;;;0.40;0.20;;;;;;;21.24;100.00;100135.09;5016308;28;20427;-51
2023/08/14 05:51:25;;;;;;;0.40;0.20;;;;;;;21.64;100.00;100146.47;5016383;28;20438;-49
2023/08/14 05:53:52;;;;;;;0.40;0.20;;;;;;;21.61;100.00;100135.91;5016463;28;20486;-51
2023/08/14 05:56:18;;;;;;;0.40;0.20;;;;;;;21.80;100.00;100138.94;5011049;28;20966;-49
2023/08/14 05:58:45;;;;;;;0.50;0.30;;;;;;;21.42;100.00;100133.75;5016190;28;20448;-49
2023/08/14 06:01:12;;;;;;;0.40;0.20;;;;;;;21.34;100.00;100138.88;5016166;28;20496;-49
2023/08/14 06:03:39;;;;;;;0.47;0.20;;;;;;;21.42;100.00;100136.47;5015922;28;20458;-49
2023/08/14 06:06:11;;;;;;;0.40;0.20;;;;;;;21.74;100.00;100138.53;5016247;28;20510;-49
2023/08/14 06:08:37;;;;;;;0.40;0.20;;;;;;;21.96;100.00;100149.44;5015958;28;20430;-49
2023/08/14 06:11:03;;;;;;;0.40;0.20;;;;;;;21.99;100.00;100135.66;5015801;28;20438;-49
2023/08/14 06:13:31;;;;;;;0.50;0.30;;;;;;;21.70;100.00;100143.31;5015795;28;20430;-49
2023/08/14 06:15:58;;;;;;;0.40;0.20;;;;;;;22.08;100.00;100136.81;5015955;28;20452;-50
2023/08/14 06:18:24;;;;;;;0.50;0.20;;;;;;;22.53;97.89;100134.97;5015985;28;20452;-49
2023/08/14 06:20:51;;;;;;;0.40;0.20;;;;;;;22.37;95.88;100126.38;5015970;28;20517;-49
2023/08/14 06:23:17;;;;;;;0.50;0.20;;;;;;;21.94;97.58;100124.31;5015813;28;20973;-49
2023/08/14 06:25:45;;;;;;;0.50;0.20;;;;;;;22.08;97.39;100109.75;5007664;28;20960;-49
2023/08/14 06:28:12;;;;;;;0.50;0.20;;;;;;;21.86;97.04;100105.09;5011503;28;20718;-49
2023/08/14 06:30:38;;;;;;;0.40;0.20;;;;;;;21.91;98.00;100097.47;5015629;28;20547;-49
2023/08/14 06:33:05;;;;;;;0.50;0.20;;;;;;;22.04;98.50;100105.50;5015440;28;21004;-50
2023/08/14 06:35:31;;;;;;;0.50;0.20;;;;;;;22.08;99.15;100118.72;5013516;28;20452;-49
2023/08/14 06:37:58;;;;;;;0.50;0.20;;;;;;;22.42;97.45;100116.88;5002583;28;20448;-49
2023/08/14 06:40:24;;;;;;;0.50;0.30;;;;;;;22.46;97.06;100109.34;5015547;28;20467;-50
2023/08/14 06:42:52;;;;;;;0.50;0.30;;;;;;;22.46;96.14;100110.22;5005687;28;20486;-49
2023/08/14 06:45:19;;;;;;;0.50;0.20;;;;;;;22.61;94.92;100097.25;5015252;28;20454;-49
2023/08/14 06:47:45;;;;;;;0.50;0.30;;;;;;;22.86;94.10;100098.00;5015574;28;20423;-49
2023/08/14 06:50:13;;;;;;;0.50;0.27;;;;;;;23.12;92.35;100099.41;5015639;28;20586;-50
2023/08/14 06:52:40;;;;;;;0.50;0.30;;;;;;;23.29;88.00;100100.69;5015292;28;20450;-49
2023/08/14 06:55:07;;;;;;;0.50;0.20;;;;;;;23.13;89.97;100101.13;5012282;28;20934;-50
2023/08/14 06:57:34;;;;;;;0.50;0.23;;;;;;;23.47;89.88;100099.16;5012670;28;20532;-50
2023/08/14 07:00:12;;;;;;;0.50;0.20;;;;;;;23.34;89.65;100099.31;5014967;28;20961;-50
2023/08/14 07:02:39;;;;;;;0.50;0.20;;;;;;;23.50;89.92;100088.03;5015472;28;20472;-49
2023/08/14 07:05:09;;;;;;;0.43;0.27;;;;;;;23.67;88.50;100089.31;5015022;28;20427;-49
2023/08/14 07:07:37;;;;;;;0.60;0.50;;;;;;;23.74;88.76;100092.38;5015163;28;20486;-49
2023/08/14 07:10:04;;;;;;;0.50;0.20;;;;;;;23.61;88.07;100098.84;5015033;28;20466;-50
2023/08/14 07:12:30;;;;;;;0.50;0.20;;;;;;;23.68;87.71;100088.31;4989029;28;20554;-49
2023/08/14 07:14:57;;;;;;;0.50;0.30;;;;;;;23.84;87.79;100083.28;5014617;28;20454;-50
2023/08/14 07:17:23;;;;;;;0.50;0.20;;;;;;;23.64;88.23;100076.00;5015012;28;20428;-50
2023/08/14 07:19:50;;;;;;;0.50;0.20;;;;;;;23.92;87.67;100067.19;5014685;28;20455;-49
2023/08/14 07:22:16;;;;;;;0.50;0.30;;;;;;;23.84;87.97;100064.25;5014965;28;20583;-49
2023/08/14 07:24:43;;;;;;;0.50;0.30;;;;;;;23.78;86.92;100058.53;5014490;28;20865;-49
2023/08/14 07:27:10;;;;;;;0.50;0.20;;;;;;;24.10;87.88;100071.97;4989827;28;20531;-50
2023/08/14 07:29:36;;;;;;;0.50;0.30;;;;;;;24.24;86.74;100074.34;5015213;28;20462;-50
2023/08/14 07:32:03;;;;;;;0.50;0.20;;;;;;;24.19;86.23;100076.59;5015595;28;20488;-50
2023/08/14 07:34:29;;;;;;;0.50;0.23;;;;;;;24.29;85.68;100074.81;5013301;28;20999;-50
2023/08/14 07:36:56;;;;;;;0.50;0.20;;;;;;;24.96;83.27;100070.59;5006047;28;20449;-51
2023/08/14 07:39:23;;;;;;;0.50;0.30;;;;;;;24.94;83.52;100078.00;5009479;28;20453;-50
2023/08/14 07:41:49;;;;;;;0.50;0.30;;;;;;;25.02;84.02;100081.78;5010268;28;20476;-51
2023/08/14 07:44:16;;;;;;;0.50;0.30;;;;;;;25.22;82.95;100088.13;5009752;28;20453;-50
2023/08/14 07:46:42;;;;;;;0.50;0.30;;;;;;;25.57;81.02;100084.78;5014827;28;20514;-50
2023/08/14 07:49:10;;;;;;;0.50;0.30;;;;;;;25.43;81.34;100084.38;5014489;28;20448;-51
2023/08/14 07:51:36;;;;;;;0.50;0.30;;;;;;;25.67;81.15;100090.22;5014549;28;20530;-51
2023/08/14 07:54:03;;;;;;;0.50;0.30;;;;;;;25.62;80.78;100096.09;5014102;28;20510;-51
2023/08/14 07:56:29;;;;;;;0.50;0.27;;;;;;;25.59;81.51;100095.53;5009092;28;20427;-51
2023/08/14 07:58:56;;;;;;;0.50;0.30;;;;;;;25.53;81.45;100090.69;5014180;28;20476;-50
2023/08/14 08:01:23;;;;;;;0.50;0.30;;;;;;;25.46;81.58;100106.72;5014250;28;21042;-50
2023/08/14 08:03:49;;;;;;;0.50;0.30;;;;;;;25.70;81.38;100100.84;5014206;28;20463;-49
2023/08/14 08:06:16;;;;;;;0.50;0.30;;;;;;;25.51;82.37;100106.31;5014196;28;20574;-50
2023/08/14 08:08:42;;;;;;;0.50;0.20;;;;;;;25.40;83.55;100107.31;5013923;28;20457;-50
2023/08/14 08:11:13;;;;;;;0.50;0.30;;;;;;;25.34;83.35;100100.53;5013958;28;20556;-50
2023/08/14 08:13:39;;;;;;;0.50;0.27;;;;;;;25.38;83.75;100110.16;5013940;28;20476;-50
2023/08/14 08:16:06;;;;;;;0.50;0.30;;;;;;;25.53;83.27;100107.88;5014098;28;20452;-51
2023/08/14 08:18:32;;;;;;;0.50;0.27;;;;;;;25.55;83.24;100110.44;5013825;28;20498;-51
2023/08/14 08:20:59;;;;;;;0.50;0.30;;;;;;;25.68;82.14;100114.63;5012545;28;20559;-51
2023/08/14 08:23:25;;;;;;;0.50;0.27;;;;;;;25.97;81.42;100114.56;5013910;28;20427;-51
2023/08/14 08:25:51;;;;;;;0.50;0.30;;;;;;;26.16;81.36;100105.47;5005192;28;20472;-50
2023/08/14 08:28:18;;;;;;;0.50;0.30;;;;;;;25.94;81.95;100114.00;5011192;28;20487;-51
2023/08/14 08:30:44;;;;;;;0.50;0.30;;;;;;;25.96;82.75;100120.16;5013942;28;20499;-51
2023/08/14 08:33:11;;;;;;;0.50;0.20;;;;;;;25.83;84.26;100120.47;5013612;28;21074;-50
2023/08/14 08:35:37;;;;;;;0.50;0.30;;;;;;;25.89;83.12;100116.31;5011354;28;20992;-50
2023/08/14 08:38:04;;;;;;;0.50;0.30;;;;;;;25.90;82.26;100120.75;5000505;28;20898;-50
2023/08/14 08:40:33;;;;;;;0.50;0.30;;;;;;;25.58;83.32;100121.91;5013502;28;20448;-51
2023/08/14 08:43:00;;;;;;;0.50;0.30;;;;;;;25.68;82.18;100119.19;5003358;28;20871;-50
2023/08/14 08:45:31;;;;;;;0.50;0.30;;;;;;;25.86;81.96;100135.66;5013284;28;20926;-50
2023/08/14 08:48:01;;;;;;;0.50;0.20;;;;;;;26.08;81.69;100137.22;5013396;28;20444;-50
2023/08/14 08:50:28;;;;;;;0.50;0.30;;;;;;;26.26;81.81;100149.06;5013207;28;20471;-51
2023/08/14 08:52:56;;;;;;;0.50;0.30;;;;;;;26.50;81.04;100144.00;5013500;28;20469;-51
2023/08/14 08:55:22;;;;;;;0.50;0.30;;;;;;;26.51;81.34;100142.13;5008440;28;20829;-51
2023/08/14 08:57:50;;;;;;;0.50;0.30;;;;;;;26.57;81.83;100141.50;5012788;28;20464;-50
2023/08/14 09:00:18;;;;;;;0.50;0.30;;;;;;;26.78;80.44;100135.84;5013442;28;20431;-51
2023/08/14 09:02:45;;;;;;;0.50;0.30;;;;;;;26.65;79.38;100138.06;5013175;28;20492;-50
2023/08/14 09:05:12;;;;;;;0.50;0.30;;;;;;;26.61;79.40;100131.19;5013316;28;20453;-51
2023/08/14 09:07:39;;;;;;;0.50;0.30;;;;;;;26.81;79.23;100136.38;5013160;28;20452;-51
2023/08/14 09:10:06;;;;;;;0.50;0.30;;;;;;;26.90;79.21;100139.22;5013074;28;20448;-51
2023/08/14 09:12:32;;;;;;;0.50;0.27;;;;;;;26.93;78.12;100138.91;5013305;28;20550;-51
2023/08/14 09:15:05;;;;;;;0.50;0.30;;;;;;;26.92;77.94;100129.00;5013032;28;20523;-51
2023/08/14 09:17:32;;;;;;;0.50;0.30;;;;;;;26.62;78.59;100125.59;5012901;28;20503;-51
2023/08/14 09:19:59;;;;;;;0.50;0.20;;;;;;;26.53;80.24;100127.31;5012892;28;20487;-51
2023/08/14 09:22:31;;;;;;;0.50;0.23;;;;;;;26.50;79.58;100121.31;5012801;28;20524;-51
2023/08/14 09:24:57;;;;;;;0.50;0.30;;;;;;;26.95;79.77;100117.78;5011160;28;20434;-51
2023/08/14 09:27:26;;;;;;;0.50;0.30;;;;;;;26.82;79.45;100113.53;5002179;28;20445;-51
2023/08/14 09:29:53;;;;;;;0.50;0.30;;;;;;;27.20;79.64;100106.16;5012520;28;20482;-51
2023/08/14 09:32:23;;;;;;;0.50;0.20;;;;;;;27.39;77.40;100105.13;5012634;28;20560;-50
2023/08/14 09:34:58;;;;;;;0.50;0.30;;;;;;;27.89;75.76;100112.75;5010289;28;20442;-51
2023/08/14 09:37:25;;;;;;;1.43;1.33;;;;;;;27.54;76.08;100102.69;5000981;28;20463;-50
2023/08/14 09:40:09;;;;;;;0.50;0.30;;;;;;;27.66;75.04;100110.53;5011553;28;20519;-50
2023/08/14 09:42:35;;;;;;;0.50;0.30;;;;;;;27.64;76.04;100108.97;5003170;28;20493;-56
2023/08/14 09:45:02;;;;;;;0.50;0.30;;;;;;;27.49;76.05;100113.25;5012453;28;20972;-51
2023/08/14 09:47:31;;;;;;;0.50;0.30;;;;;;;26.89;77.28;100110.22;5012678;28;20459;-51
2023/08/14 09:49:58;;;;;;;0.50;0.20;;;;;;;27.31;79.09;100122.31;5004594;28;20927;-50
2023/08/14 09:52:24;;;;;;;0.50;0.30;;;;;;;27.49;77.92;100126.91;5008054;28;20469;-50
2023/08/14 09:54:52;;;;;;;0.50;0.40;;;;;;;27.52;76.62;100134.78;5011834;28;20456;-51
2023/08/14 09:57:24;;;;;;;0.50;0.30;;;;;;;27.66;76.37;100126.06;5008459;28;20507;-51
2023/08/14 09:59:55;;;;;;;0.50;0.30;;;;;;;27.35;78.45;100133.78;5012534;28;20499;-50
2023/08/14 10:02:23;;;;;;;0.50;0.27;;;;;;;27.23;77.23;100132.28;5012443;28;20516;-51
2023/08/14 10:04:51;;;;;;;0.50;0.30;;;;;;;27.28;77.10;100133.53;5012449;28;20970;-51
2023/08/14 10:07:19;;;;;;;0.50;0.30;;;;;;;27.28;77.71;100117.16;5012242;28;20449;-50
2023/08/14 10:09:51;;;;;;;0.50;0.30;;;;;;;27.26;76.56;100108.25;5012388;28;20938;-50
2023/08/14 10:12:22;;;;;;;0.50;0.30;;;;;;;27.21;76.75;100107.00;5012461;28;20538;-50
2023/08/14 10:15:10;;;;;;;0.50;0.30;;;;;;;27.26;77.85;100105.50;5012471;28;20496;-51
2023/08/14 10:17:58;;;;;;;0.50;0.30;;;;;;;27.08;76.86;100115.56;4991556;28;20498;-51
2023/08/14 10:20:32;;;;;;;0.50;0.30;;;;;;;27.24;76.13;100129.38;5012637;28;20449;-51
2023/08/14 10:23:01;;;;;;;0.50;0.20;;;;;;;27.42;76.71;100133.00;5012180;28;20496;-51
2023/08/14 10:25:28;;;;;;;0.50;0.30;;;;;;;27.43;77.08;100126.53;5006654;28;20508;-50
2023/08/14 10:27:55;;;;;;;0.50;0.30;;;;;;;27.62;77.39;100132.84;5005846;28;20444;-51
2023/08/14 10:30:22;;;;;;;0.50;0.30;;;;;;;27.39;78.17;100140.63;5011952;28;20456;-51
2023/08/14 10:32:50;;;;;;;0.50;0.23;;;;;;;27.23;78.24;100130.41;5013143;28;20472;-50
2023/08/14 10:35:19;;;;;;;0.50;0.30;;;;;;;27.35;76.56;100122.84;5013788;28;20448;-51
2023/08/14 10:37:48;;;;;;;0.50;0.30;;;;;;;27.67;76.52;100117.69;5002805;28;20508;-51
2023/08/14 10:40:30;;;;;;;0.50;0.30;;;;;;;27.67;75.59;100128.63;5015791;28;20531;-51
2023/08/14 10:42:58;;;;;;;0.50;0.30;;;;;;;27.83;77.18;100136.13;5005722;28;20522;-50
2023/08/14 10:45:27;;;;;;;0.50;0.30;;;;;;;27.77;74.98;100152.28;5015901;28;20487;-51
2023/08/14 10:48:07;;;;;;;0.50;0.30;;;;;;;28.01;75.49;100161.53;5015820;28;20453;-51
2023/08/14 10:50:34;;;;;;;0.50;0.30;;;;;;;27.82;77.31;100171.78;5015839;28;20448;-50
2023/08/14 10:53:04;;;;;;;0.50;0.30;;;;;;;27.63;77.47;100167.31;5015557;28;20468;-51
2023/08/14 10:55:44;;;;;;;0.50;0.30;;;;;;;27.86;75.98;100171.34;5009289;28;20507;-51
2023/08/14 10:58:29;;;;;;;0.50;0.30;;;;;;;27.94;76.51;100171.38;5015541;28;20452;-51
2023/08/14 11:00:56;;;;;;;0.50;0.30;;;;;;;28.09;75.75;100179.00;5015023;28;20518;-50
2023/08/14 11:03:23;;;;;;;0.50;0.30;;;;;;;27.89;77.93;100176.47;5015383;28;20550;-50
2023/08/14 11:05:50;;;;;;;0.50;0.23;;;;;;;27.81;77.67;100178.25;5015185;28;20545;-50
2023/08/14 11:08:18;;;;;;;0.50;0.20;;;;;;;28.01;76.45;100172.47;5015420;28;20456;-50
2023/08/14 11:10:44;;;;;;;0.50;0.20;;;;;;;28.12;77.17;100176.84;5015064;28;20539;-50
2023/08/14 11:13:11;;;;;;;0.50;0.20;;;;;;;28.15;75.12;100181.13;5015247;28;20539;-50
2023/08/14 11:15:39;;;;;;;0.50;0.30;;;;;;;28.29;75.56;100180.56;5015061;28;20532;-50
2023/08/14 11:18:10;;;;;;;0.50;0.50;;;;;;;27.95;75.96;100180.44;5014944;28;20929;-50
2023/08/14 11:20:41;;;;;;;0.50;0.30;;;;;;;27.92;75.13;100175.28;5015384;28;20449;-51
2023/08/14 11:23:09;;;;;;;0.50;0.30;;;;;;;27.85;75.38;100177.81;5015135;28;20579;-51
2023/08/14 11:25:37;;;;;;;0.50;0.30;;;;;;;27.58;77.89;100178.72;4982851;28;20459;-51